Monitor — WCX9104 — position and weather

sailwx.info

Track history (hours):
 
Tides and Currents Weather Stations Pressure Air Temp Water Temp Dewpoint Dewpoint Depression Visibility Wind Speed Wind Dir Waves Ship Positions

Monitor

Owner: CROWLEY PUERTO RICO SERVICES INC, Seattle, WA. More information available from US FCC via Universal Licensing System and Coast Guard Vessel Documentation Center.

Last reported at 2017-Mar-27 12:30 UTC. Time now 2017-Mar-30 18:33 UTC.
Position N 39°04' W 075°10'.

Length 40 m; draft 5.8 m.

Type: Towing. MMSI: 366766920.

Date/timePositionNaut miles runAvg speedWind from/ knotsBaromVisibWave heightAir tempDewpointWater temp
2017-Mar-27 12:30N 39°04' W 075°10'7 7.6
2017-Mar-27 11:34N 39°10' W 075°15'8 7.9
2017-Mar-27 10:33N 39°16' W 075°21'9 9.3
2017-Mar-27 09:33N 39°23' W 075°29'10 9.9
2017-Mar-27 08:33N 39°33' W 075°32'10 9.7
2017-Mar-27 07:33N 39°43' W 075°31'1010.1
2017-Mar-27 06:33N 39°50' W 075°22'9 8.8
2017-Mar-27 05:33N 39°53' W 075°11'6 6.2
2017-Mar-27 04:33N 39°58' W 075°07'0 0.2
2017-Mar-27 03:31N 39°58' W 075°07'0 0.0
2017-Mar-27 02:31N 39°58' W 075°07'2 1.6
2017-Mar-27 01:33N 39°59' W 075°05'0 0.0
2017-Mar-27 00:33N 39°59' W 075°05'0 0.0
2017-Mar-26 23:33N 39°59' W 075°05'0 0.0
2017-Mar-26 22:33N 39°59' W 075°05'0 0.0
2017-Mar-26 21:33N 39°59' W 075°05'0 0.0
2017-Mar-26 20:33N 39°59' W 075°05'0 0.0
2017-Mar-26 19:33N 39°59' W 075°05'0 0.0
2017-Mar-26 18:33N 39°59' W 075°05'0 0.0
2017-Mar-26 17:33N 39°59' W 075°05'0 0.0
2017-Mar-26 16:33N 39°59' W 075°05'0 0.0
2017-Mar-26 15:33N 39°59' W 075°05'0 0.3
2017-Mar-26 14:32N 39°59' W 075°05'0 0.0
2017-Mar-26 13:32N 39°59' W 075°05'0 0.0
2017-Mar-26 12:32N 39°59' W 075°05'0 0.0
2017-Mar-26 11:32N 39°59' W 075°05'0 0.0
2017-Mar-26 10:32N 39°59' W 075°05'0 0.0
2017-Mar-26 09:32N 39°59' W 075°05'0 0.0
2017-Mar-26 08:32N 39°59' W 075°05'0 0.0
2017-Mar-26 07:32N 39°59' W 075°05'0 0.0
2017-Mar-26 06:32N 39°59' W 075°05'0 0.0
2017-Mar-26 05:32N 39°59' W 075°05'1 1.3
2017-Mar-26 04:34N 39°58' W 075°07'0 0.0
2017-Mar-26 03:34N 39°58' W 075°07'0 0.1
2017-Mar-26 02:33N 39°58' W 075°07'3 3.1
2017-Mar-26 01:33N 39°55' W 075°08'9 8.6
2017-Mar-26 00:33N 39°51' W 075°18'9 9.4
2017-Mar-25 23:33N 39°46' W 075°28'9 8.8
2017-Mar-25 22:34N 39°38' W 075°34'8 8.1
2017-Mar-25 21:33N 39°30' W 075°33'7 7.4
2017-Mar-25 20:33N 39°24' W 075°29'7 7.1
2017-Mar-25 19:33N 39°18' W 075°23'8 7.5
2017-Mar-25 18:31N 39°12' W 075°17'  
2017-Mar-19 06:10N 18°31' W 066°06'4 6.0
2017-Mar-19 05:33N 18°27' W 066°07'0 0.2
2017-Mar-19 03:05N 18°27' W 066°06'0 0.0
2017-Mar-18 15:10N 18°27' W 066°06'0 0.4
2017-Mar-18 14:33N 18°27' W 066°06'  
Track history (hours):
 
Tides and Currents Weather Stations Pressure Air Temp Water Temp Dewpoint Dewpoint Depression Visibility Wind Speed Wind Dir Waves Ship Positions

Monitor

Owner: CROWLEY PUERTO RICO SERVICES INC, Seattle, WA. More information available from US FCC via Universal Licensing System and Coast Guard Vessel Documentation Center.

Last reported at 2017-Mar-27 12:30 UTC. Time now 2017-Mar-30 18:33 UTC.
Position N 39°04' W 075°10'.

Length 40 m; draft 5.8 m.

Type: Towing. MMSI: 366766920.

Date/timePositionNaut miles runAvg speedWind from/ knotsBaromVisibWave heightAir tempDewpointWater temp
2017-Mar-27 12:30N 39°04' W 075°10'7 7.6
2017-Mar-27 11:34N 39°10' W 075°15'8 7.9
2017-Mar-27 10:33N 39°16' W 075°21'9 9.3
2017-Mar-27 09:33N 39°23' W 075°29'10 9.9
2017-Mar-27 08:33N 39°33' W 075°32'10 9.7
2017-Mar-27 07:33N 39°43' W 075°31'1010.1
2017-Mar-27 06:33N 39°50' W 075°22'9 8.8
2017-Mar-27 05:33N 39°53' W 075°11'6 6.2
2017-Mar-27 04:33N 39°58' W 075°07'0 0.2
2017-Mar-27 03:31N 39°58' W 075°07'0 0.0
2017-Mar-27 02:31N 39°58' W 075°07'2 1.6
2017-Mar-27 01:33N 39°59' W 075°05'0 0.0
2017-Mar-27 00:33N 39°59' W 075°05'0 0.0
2017-Mar-26 23:33N 39°59' W 075°05'0 0.0
2017-Mar-26 22:33N 39°59' W 075°05'0 0.0
2017-Mar-26 21:33N 39°59' W 075°05'0 0.0
2017-Mar-26 20:33N 39°59' W 075°05'0 0.0
2017-Mar-26 19:33N 39°59' W 075°05'0 0.0
2017-Mar-26 18:33N 39°59' W 075°05'0 0.0
2017-Mar-26 17:33N 39°59' W 075°05'0 0.0
2017-Mar-26 16:33N 39°59' W 075°05'0 0.0
2017-Mar-26 15:33N 39°59' W 075°05'0 0.3
2017-Mar-26 14:32N 39°59' W 075°05'0 0.0
2017-Mar-26 13:32N 39°59' W 075°05'0 0.0
2017-Mar-26 12:32N 39°59' W 075°05'0 0.0
2017-Mar-26 11:32N 39°59' W 075°05'0 0.0
2017-Mar-26 10:32N 39°59' W 075°05'0 0.0
2017-Mar-26 09:32N 39°59' W 075°05'0 0.0
2017-Mar-26 08:32N 39°59' W 075°05'0 0.0
2017-Mar-26 07:32N 39°59' W 075°05'0 0.0
2017-Mar-26 06:32N 39°59' W 075°05'0 0.0
2017-Mar-26 05:32N 39°59' W 075°05'1 1.3
2017-Mar-26 04:34N 39°58' W 075°07'0 0.0
2017-Mar-26 03:34N 39°58' W 075°07'0 0.1
2017-Mar-26 02:33N 39°58' W 075°07'3 3.1
2017-Mar-26 01:33N 39°55' W 075°08'9 8.6
2017-Mar-26 00:33N 39°51' W 075°18'9 9.4
2017-Mar-25 23:33N 39°46' W 075°28'9 8.8
2017-Mar-25 22:34N 39°38' W 075°34'8 8.1
2017-Mar-25 21:33N 39°30' W 075°33'7 7.4
2017-Mar-25 20:33N 39°24' W 075°29'7 7.1
2017-Mar-25 19:33N 39°18' W 075°23'8 7.5
2017-Mar-25 18:31N 39°12' W 075°17'  
2017-Mar-19 06:10N 18°31' W 066°06'4 6.0
2017-Mar-19 05:33N 18°27' W 066°07'0 0.2
2017-Mar-19 03:05N 18°27' W 066°06'0 0.0
2017-Mar-18 15:10N 18°27' W 066°06'0 0.4
2017-Mar-18 14:33N 18°27' W 066°06'  

Dump ship's entire track history